createdAt,value
2019-01-15T00:02:08.127Z,3.90
2019-01-15T00:04:37.554Z,3.90
2019-01-15T00:07:06.955Z,3.90
2019-01-15T00:09:36.450Z,3.90
2019-01-15T00:12:07.890Z,3.90
2019-01-15T00:14:39.738Z,3.90
2019-01-15T00:17:09.234Z,3.90
2019-01-15T00:19:38.812Z,3.90
2019-01-15T00:22:08.072Z,3.90
2019-01-15T00:24:37.374Z,3.90
2019-01-15T00:27:06.709Z,3.90
2019-01-15T00:29:37.629Z,3.80
2019-01-15T00:32:07.356Z,3.80
2019-01-15T00:34:36.680Z,3.80
2019-01-15T00:37:08.941Z,3.80
2019-01-15T00:39:38.617Z,3.80
2019-01-15T00:42:15.054Z,3.70
2019-01-15T00:44:39.548Z,3.80
2019-01-15T00:47:08.806Z,3.70
2019-01-15T00:49:38.424Z,3.70
2019-01-15T00:52:07.659Z,3.70
2019-01-15T00:54:37.224Z,3.70
2019-01-15T00:57:06.708Z,3.70
2019-01-15T00:59:36.223Z,3.70
2019-01-15T01:02:05.608Z,3.70
2019-01-15T01:04:35.751Z,3.60
2019-01-15T01:07:05.483Z,3.60
2019-01-15T01:09:34.746Z,3.60
2019-01-15T01:12:03.997Z,3.60
2019-01-15T01:14:33.301Z,3.60
2019-01-15T01:17:02.628Z,3.60
2019-01-15T01:19:32.643Z,3.50
2019-01-15T01:22:01.954Z,3.50
2019-01-15T01:24:31.230Z,3.50
2019-01-15T01:27:00.780Z,3.50
2019-01-15T01:29:30.050Z,3.50
2019-01-15T01:31:59.670Z,3.50
2019-01-15T01:34:28.965Z,3.50
2019-01-15T01:36:58.229Z,3.50
2019-01-15T01:39:27.836Z,3.50
2019-01-15T01:41:57.714Z,3.40
2019-01-15T01:44:27.065Z,3.40
2019-01-15T01:46:56.195Z,3.40
2019-01-15T01:49:25.901Z,3.40
2019-01-15T01:51:55.522Z,3.30
2019-01-15T01:54:25.036Z,3.30
2019-01-15T01:56:55.831Z,3.30
2019-01-15T01:59:25.113Z,3.30
2019-01-15T02:01:54.563Z,3.30
2019-01-15T02:04:24.125Z,3.30
2019-01-15T02:06:53.403Z,3.30
2019-01-15T02:09:22.584Z,3.30
2019-01-15T02:11:51.721Z,3.30
2019-01-15T02:14:21.023Z,3.30
2019-01-15T02:16:50.588Z,3.40
2019-01-15T02:19:19.854Z,3.40
2019-01-15T02:21:49.068Z,3.40
2019-01-15T02:24:18.644Z,3.40
2019-01-15T02:26:47.867Z,3.40
2019-01-15T02:29:17.154Z,3.50
2019-01-15T02:31:46.398Z,3.50
2019-01-15T02:34:16.058Z,3.50
2019-01-15T02:36:45.469Z,3.60
2019-01-15T02:39:14.942Z,3.60
2019-01-15T02:41:44.183Z,3.70
2019-01-15T02:44:13.574Z,3.70
2019-01-15T02:46:43.273Z,3.70
2019-01-15T02:49:12.555Z,3.70
2019-01-15T02:51:41.802Z,3.80
2019-01-15T02:54:11.065Z,3.80
2019-01-15T02:56:40.368Z,3.90
2019-01-15T02:59:09.984Z,3.90
2019-01-15T03:01:39.562Z,3.90
2019-01-15T03:04:08.801Z,4.00
2019-01-15T03:06:37.980Z,4.00
2019-01-15T03:09:08.691Z,4.00
2019-01-15T03:11:38.352Z,4.10
2019-01-15T03:14:08.005Z,4.10
2019-01-15T03:16:37.168Z,4.20
2019-01-15T03:19:06.352Z,4.20
2019-01-15T03:21:35.670Z,4.20
2019-01-15T03:24:04.859Z,4.30
2019-01-15T03:26:34.028Z,4.30
2019-01-15T03:29:03.561Z,4.30
2019-01-15T03:31:32.744Z,4.40
2019-01-15T03:34:02.096Z,4.40
2019-01-15T03:36:31.335Z,4.40
2019-01-15T03:39:00.667Z,4.40
2019-01-15T03:41:30.073Z,4.50
2019-01-15T03:43:59.367Z,4.50
2019-01-15T03:46:29.011Z,4.50
2019-01-15T03:48:58.269Z,4.50
2019-01-15T03:51:27.510Z,4.60
2019-01-15T03:53:56.751Z,4.60
2019-01-15T03:56:26.264Z,4.60
2019-01-15T03:58:57.850Z,4.70
2019-01-15T04:01:27.129Z,4.60
2019-01-15T04:03:56.619Z,4.70
2019-01-15T04:06:25.880Z,4.70
2019-01-15T04:08:55.254Z,4.70
2019-01-15T04:11:24.639Z,4.70
2019-01-15T04:13:53.892Z,4.70
2019-01-15T04:16:23.557Z,4.70
2019-01-15T04:18:53.176Z,4.70
2019-01-15T04:21:22.461Z,4.80
2019-01-15T04:23:51.768Z,4.80
2019-01-15T04:26:21.595Z,4.80
2019-01-15T04:28:50.989Z,4.80
2019-01-15T04:31:20.558Z,4.80
2019-01-15T04:33:50.433Z,4.80
2019-01-15T04:36:19.924Z,4.80
2019-01-15T04:38:49.191Z,4.80
2019-01-15T04:41:18.707Z,4.80
2019-01-15T04:43:48.074Z,4.90
2019-01-15T04:46:17.347Z,4.90
2019-01-15T04:48:46.621Z,4.90
2019-01-15T04:51:16.032Z,5.00
2019-01-15T04:53:45.724Z,5.00
2019-01-15T04:56:15.329Z,5.00
2019-01-15T04:58:46.353Z,5.10
2019-01-15T05:01:16.095Z,5.10
2019-01-15T05:03:45.462Z,5.10
2019-01-15T05:06:14.763Z,5.10
2019-01-15T05:08:44.035Z,5.10
2019-01-15T05:11:13.291Z,5.10
2019-01-15T05:13:42.675Z,5.10
2019-01-15T05:16:11.942Z,5.20
2019-01-15T05:18:41.512Z,5.10
2019-01-15T05:21:10.768Z,5.10
2019-01-15T05:23:40.043Z,5.20
2019-01-15T05:26:09.960Z,5.10
2019-01-15T05:28:39.516Z,5.10
2019-01-15T05:31:09.221Z,5.10
2019-01-15T05:33:38.573Z,5.10
2019-01-15T05:36:08.120Z,5.10
2019-01-15T05:38:37.520Z,5.10
2019-01-15T05:41:06.792Z,5.10
2019-01-15T05:43:36.112Z,5.10
2019-01-15T05:46:05.502Z,5.10
2019-01-15T05:48:36.694Z,5.10
2019-01-15T05:51:27.897Z,5.10
2019-01-15T05:53:57.124Z,5.10
2019-01-15T05:56:26.593Z,5.10
2019-01-15T05:58:55.980Z,5.10
2019-01-15T06:01:25.936Z,5.20
2019-01-15T06:03:55.183Z,5.20
2019-01-15T06:06:24.704Z,5.20
2019-01-15T06:08:54.577Z,5.20
2019-01-15T06:11:23.937Z,5.20
2019-01-15T06:13:53.223Z,5.20
2019-01-15T06:16:22.801Z,5.20
2019-01-15T06:18:52.160Z,5.20
2019-01-15T06:21:21.811Z,5.30
2019-01-15T06:23:51.496Z,5.30
2019-01-15T06:26:20.745Z,5.40
2019-01-15T06:28:50.515Z,5.40
2019-01-15T06:31:20.196Z,5.40
2019-01-15T06:33:49.464Z,5.40
2019-01-15T06:36:18.853Z,5.50
2019-01-15T06:38:48.118Z,5.50
2019-01-15T06:41:17.397Z,5.50
2019-01-15T06:43:50.377Z,5.60
2019-01-15T06:46:19.685Z,5.60
2019-01-15T06:49:08.028Z,5.60
2019-01-15T06:51:37.778Z,5.60
2019-01-15T06:54:07.348Z,5.70
2019-01-15T06:56:36.884Z,5.70
2019-01-15T06:59:06.685Z,5.70
2019-01-15T07:01:36.790Z,5.80
2019-01-15T07:04:06.311Z,5.80
2019-01-15T07:06:35.610Z,5.80
2019-01-15T07:09:08.656Z,5.80
2019-01-15T07:11:38.500Z,5.90
2019-01-15T07:14:07.827Z,5.90
2019-01-15T07:16:39.115Z,6.00
2019-01-15T07:19:08.797Z,6.00
2019-01-15T07:21:38.366Z,6.00
2019-01-15T07:24:08.238Z,5.90
2019-01-15T07:26:38.326Z,6.00
2019-01-15T07:29:07.508Z,6.00
2019-01-15T07:31:39.081Z,6.00
2019-01-15T07:34:08.451Z,6.00
2019-01-15T07:36:37.708Z,6.00
2019-01-15T07:39:09.148Z,6.00
2019-01-15T07:41:38.473Z,6.00
2019-01-15T07:44:08.323Z,6.10
2019-01-15T07:46:38.827Z,6.10
2019-01-15T07:49:11.457Z,6.10
2019-01-15T07:51:41.519Z,6.10
2019-01-15T07:54:11.121Z,6.10
2019-01-15T07:56:40.627Z,6.20
2019-01-15T07:59:09.921Z,6.20
2019-01-15T08:01:39.288Z,6.10
2019-01-15T08:04:08.579Z,6.20
2019-01-15T08:06:37.823Z,6.20
2019-01-15T08:09:11.777Z,6.20
2019-01-15T08:11:41.721Z,6.30
2019-01-15T08:14:12.198Z,6.30
2019-01-15T08:16:42.101Z,6.30
2019-01-15T08:19:11.602Z,6.30
2019-01-15T08:21:40.938Z,6.30
2019-01-15T08:24:10.213Z,6.30
2019-01-15T08:26:39.731Z,6.30
2019-01-15T08:29:09.017Z,6.40
2019-01-15T08:31:38.602Z,6.40
2019-01-15T08:34:07.841Z,6.40
2019-01-15T08:36:37.564Z,6.40
2019-01-15T08:39:08.892Z,6.40
2019-01-15T08:41:38.215Z,6.50
2019-01-15T08:44:07.769Z,6.40
2019-01-15T08:46:37.385Z,6.50
2019-01-15T08:49:06.943Z,6.50
2019-01-15T08:51:36.425Z,6.50
2019-01-15T08:54:06.512Z,6.50
2019-01-15T08:56:35.801Z,6.50
2019-01-15T08:59:05.332Z,6.60
2019-01-15T09:01:34.650Z,6.60
2019-01-15T09:04:03.934Z,6.60
2019-01-15T09:06:33.296Z,6.70
2019-01-15T09:09:02.866Z,6.70
2019-01-15T09:11:33.236Z,6.70
2019-01-15T09:14:02.581Z,6.70
2019-01-15T09:16:31.942Z,6.80
2019-01-15T09:19:01.212Z,6.80
2019-01-15T09:21:30.744Z,6.80
2019-01-15T09:24:00.327Z,6.80
2019-01-15T09:26:29.669Z,6.90
2019-01-15T09:28:59.172Z,6.90
2019-01-15T09:31:28.756Z,6.90
2019-01-15T09:33:58.617Z,6.90
2019-01-15T09:36:27.869Z,7.00
2019-01-15T09:38:57.109Z,7.00
2019-01-15T09:41:30.926Z,7.00
2019-01-15T09:44:01.152Z,7.00
2019-01-15T09:46:30.650Z,7.10
2019-01-15T09:49:00.337Z,7.10
2019-01-15T09:51:29.661Z,7.10
2019-01-15T09:54:01.419Z,7.20
2019-01-15T09:56:30.953Z,7.20
2019-01-15T09:59:00.528Z,7.20
2019-01-15T10:01:30.096Z,7.30
2019-01-15T10:03:59.735Z,7.30
2019-01-15T10:06:29.375Z,7.30
2019-01-15T10:08:58.959Z,7.30
2019-01-15T10:11:28.574Z,7.30
2019-01-15T10:13:57.859Z,7.30
2019-01-15T10:16:27.163Z,7.30
2019-01-15T10:19:02.670Z,7.30
2019-01-15T10:21:32.263Z,7.40
2019-01-15T10:24:01.518Z,7.40
2019-01-15T10:26:30.873Z,7.40
2019-01-15T10:29:00.423Z,7.40
2019-01-15T10:32:24.088Z,7.40
2019-01-15T10:34:53.647Z,7.40
2019-01-15T10:37:22.910Z,7.40
2019-01-15T10:39:52.667Z,7.50
2019-01-15T10:42:21.971Z,7.50
2019-01-15T10:44:51.269Z,7.50
2019-01-15T10:47:20.503Z,7.50
2019-01-15T10:49:49.885Z,7.60
2019-01-15T10:52:19.194Z,7.60
2019-01-15T10:54:48.512Z,7.60
2019-01-15T10:57:18.185Z,7.60
2019-01-15T10:59:51.469Z,7.60
2019-01-15T11:02:20.705Z,7.60
2019-01-15T11:04:50.025Z,7.70
2019-01-15T11:07:19.650Z,7.70
2019-01-15T11:09:49.289Z,7.70
2019-01-15T11:12:18.943Z,7.70
2019-01-15T11:14:55.816Z,7.70
2019-01-15T11:17:20.982Z,7.70
2019-01-15T11:19:50.469Z,7.70
2019-01-15T11:22:19.746Z,7.70
2019-01-15T11:24:49.120Z,7.70
2019-01-15T11:27:18.726Z,7.70
2019-01-15T11:29:48.415Z,7.70
2019-01-15T11:32:19.381Z,7.70
2019-01-15T11:34:50.340Z,7.70
2019-01-15T11:37:21.875Z,7.70
2019-01-15T11:39:51.554Z,7.70
2019-01-15T11:42:21.115Z,7.70
2019-01-15T11:44:50.418Z,7.70
2019-01-15T11:47:19.785Z,7.70
2019-01-15T11:49:49.203Z,7.70
2019-01-15T11:52:18.634Z,7.70
2019-01-15T11:54:51.328Z,7.70
2019-01-15T11:57:20.643Z,7.70
2019-01-15T11:59:49.931Z,7.80
2019-01-15T12:02:33.062Z,7.80
2019-01-15T12:05:27.187Z,7.80
2019-01-15T12:08:17.848Z,7.80
2019-01-15T12:11:00.126Z,7.80
2019-01-15T12:13:48.348Z,7.80
2019-01-15T12:16:35.178Z,7.80
2019-01-15T12:19:26.529Z,7.80
2019-01-15T12:22:16.936Z,7.80
2019-01-15T12:25:03.739Z,7.80
2019-01-15T12:27:56.049Z,7.80
2019-01-15T12:30:44.175Z,7.90
2019-01-15T12:33:31.592Z,7.90
2019-01-15T12:36:20.068Z,7.90
2019-01-15T12:39:12.144Z,8.00
2019-01-15T12:41:59.594Z,8.00
2019-01-15T12:44:43.907Z,8.00
2019-01-15T12:47:47.108Z,8.00
2019-01-15T12:50:35.710Z,8.10
2019-01-15T12:53:39.224Z,8.10
2019-01-15T12:56:16.998Z,8.10
2019-01-15T12:59:03.030Z,8.10
2019-01-15T13:01:59.659Z,8.10
2019-01-15T13:04:48.518Z,8.10
2019-01-15T13:07:55.458Z,8.10
2019-01-15T13:10:42.508Z,8.10
2019-01-15T13:13:26.474Z,8.20
2019-01-15T13:16:13.379Z,8.10
2019-01-15T13:19:04.366Z,8.20
2019-01-15T13:22:03.362Z,8.20
2019-01-15T13:25:04.177Z,8.20
2019-01-15T13:27:52.106Z,8.30
2019-01-15T13:30:40.465Z,8.30
2019-01-15T13:33:28.680Z,8.30
2019-01-15T13:36:35.321Z,8.30
2019-01-15T13:39:34.301Z,8.40
2019-01-15T13:42:37.177Z,8.40
2019-01-15T13:45:18.402Z,8.40
2019-01-15T13:48:05.393Z,8.40
2019-01-15T13:50:56.668Z,8.40
2019-01-15T13:54:03.937Z,8.40
2019-01-15T13:57:01.312Z,8.40
2019-01-15T13:59:44.866Z,8.40
2019-01-15T14:02:30.694Z,8.50
2019-01-15T14:05:33.908Z,8.50
2019-01-15T14:08:25.415Z,8.50
2019-01-15T14:11:13.769Z,8.50
2019-01-15T14:14:00.930Z,8.50
2019-01-15T14:16:48.057Z,8.50
2019-01-15T14:19:45.695Z,8.50
2019-01-15T14:22:44.582Z,8.50
2019-01-15T14:25:23.445Z,8.50
2019-01-15T14:28:31.937Z,8.50
2019-01-15T14:31:15.163Z,8.60
2019-01-15T14:34:06.422Z,8.60
2019-01-15T14:36:58.294Z,8.60
2019-01-15T14:39:45.439Z,8.60
2019-01-15T14:42:33.740Z,8.60
2019-01-15T14:45:21.067Z,8.60
2019-01-15T14:48:12.668Z,8.60
2019-01-15T14:51:00.130Z,8.50
2019-01-15T14:53:48.423Z,8.50
2019-01-15T14:56:51.910Z,8.50
2019-01-15T14:59:52.920Z,8.50
2019-01-15T15:02:41.177Z,8.50
2019-01-15T15:05:39.815Z,8.40
2019-01-15T15:08:46.497Z,8.40
2019-01-15T15:11:43.378Z,8.40
2019-01-15T15:14:30.279Z,8.40
2019-01-15T15:17:38.888Z,8.40
2019-01-15T15:20:26.507Z,8.40
2019-01-15T15:23:20.533Z,8.30
2019-01-15T15:26:12.037Z,8.30
2019-01-15T15:29:15.373Z,8.30
2019-01-15T15:32:05.489Z,8.30
2019-01-15T15:34:58.940Z,8.20
2019-01-15T15:37:46.286Z,8.20
2019-01-15T15:40:39.367Z,8.20
2019-01-15T15:43:42.705Z,8.20
2019-01-15T15:46:35.080Z,8.20
2019-01-15T15:49:29.542Z,8.20
2019-01-15T15:52:23.800Z,8.10
2019-01-15T15:55:11.021Z,8.10
2019-01-15T15:58:02.617Z,8.10
2019-01-15T16:00:53.651Z,8.10
2019-01-15T16:03:47.808Z,8.10
2019-01-15T16:06:47.784Z,8.10
2019-01-15T16:09:27.181Z,8.10
2019-01-15T16:12:08.686Z,8.00
2019-01-15T16:14:53.453Z,8.00
2019-01-15T16:17:40.373Z,8.00
2019-01-15T16:20:40.989Z,8.00
2019-01-15T16:23:35.971Z,8.00
2019-01-15T16:26:12.645Z,8.00
2019-01-15T16:29:03.009Z,8.00
2019-01-15T16:31:48.127Z,8.00
2019-01-15T16:34:36.260Z,8.00
2019-01-15T16:37:36.037Z,8.00
2019-01-15T16:40:39.590Z,8.00
2019-01-15T16:43:36.323Z,7.90
2019-01-15T16:46:41.355Z,7.90
2019-01-15T16:49:32.700Z,7.90
2019-01-15T16:52:22.617Z,7.90
2019-01-15T16:55:19.790Z,7.90
2019-01-15T16:58:07.309Z,7.90
2019-01-15T17:01:05.296Z,7.90
2019-01-15T17:04:13.586Z,7.90
2019-01-15T17:07:15.671Z,7.90
2019-01-15T17:10:13.164Z,7.90
2019-01-15T17:13:10.301Z,7.90
2019-01-15T17:15:58.669Z,7.90
2019-01-15T17:18:45.523Z,7.90
2019-01-15T17:21:33.803Z,7.90
2019-01-15T17:24:21.991Z,7.90
2019-01-15T17:27:09.441Z,7.90
2019-01-15T17:29:56.773Z,7.90
2019-01-15T17:32:47.787Z,7.90
2019-01-15T17:35:24.355Z,7.90
2019-01-15T17:38:21.900Z,7.90
2019-01-15T17:41:03.904Z,7.90
2019-01-15T17:43:44.527Z,7.90
2019-01-15T17:46:33.292Z,7.90
2019-01-15T17:49:23.134Z,7.90
2019-01-15T17:52:10.939Z,7.90
2019-01-15T17:55:16.389Z,7.90
2019-01-15T17:58:08.519Z,7.90
2019-01-15T18:00:49.840Z,7.90
2019-01-15T18:03:41.464Z,7.90
2019-01-15T18:06:39.052Z,7.90
2019-01-15T18:09:27.227Z,7.90
2019-01-15T18:12:15.491Z,7.90
2019-01-15T18:15:02.356Z,7.90
2019-01-15T18:17:59.862Z,7.90
2019-01-15T18:20:50.609Z,7.90
2019-01-15T18:23:44.945Z,7.90
2019-01-15T18:26:43.170Z,7.90
2019-01-15T18:29:47.098Z,7.90
2019-01-15T18:32:47.614Z,7.90
2019-01-15T18:35:43.146Z,7.90
2019-01-15T18:38:43.609Z,7.90
2019-01-15T18:41:38.125Z,7.90
2019-01-15T18:44:38.550Z,7.90
2019-01-15T18:47:28.661Z,7.80
2019-01-15T18:50:25.866Z,7.80
2019-01-15T18:53:05.911Z,7.80
2019-01-15T18:55:57.226Z,7.90
2019-01-15T18:58:55.056Z,7.80
2019-01-15T19:01:53.201Z,7.80
2019-01-15T19:04:49.777Z,7.80
2019-01-15T19:07:39.268Z,7.80
2019-01-15T19:10:28.149Z,7.80
2019-01-15T19:13:16.632Z,7.80
2019-01-15T19:16:03.437Z,7.80
2019-01-15T19:19:10.088Z,7.80
2019-01-15T19:22:01.336Z,7.80
2019-01-15T19:24:54.295Z,7.80
2019-01-15T19:28:01.095Z,7.80
2019-01-15T19:30:48.154Z,7.80
2019-01-15T19:33:42.530Z,7.80
2019-01-15T19:36:30.777Z,7.90
2019-01-15T19:39:17.624Z,7.80
2019-01-15T19:42:24.351Z,7.80
2019-01-15T19:45:18.477Z,7.80
2019-01-15T19:47:59.072Z,7.80
2019-01-15T19:50:47.798Z,7.80
2019-01-15T19:53:42.330Z,7.80
2019-01-15T19:56:35.773Z,7.80
2019-01-15T19:59:24.230Z,7.80
2019-01-15T20:02:06.433Z,7.80
2019-01-15T20:04:54.674Z,7.80
2019-01-15T20:07:55.247Z,7.80
2019-01-15T20:10:40.995Z,7.90
2019-01-15T20:13:29.205Z,7.90
2019-01-15T20:16:23.238Z,7.80
2019-01-15T20:19:12.948Z,7.90
2019-01-15T20:22:19.388Z,7.90
2019-01-15T20:25:25.652Z,7.90
2019-01-15T20:28:11.194Z,7.90
2019-01-15T20:31:03.107Z,7.90
2019-01-15T20:34:00.405Z,7.90
2019-01-15T20:36:38.061Z,7.90
2019-01-15T20:39:39.941Z,7.90
2019-01-15T20:42:46.380Z,7.90
2019-01-15T20:45:34.624Z,7.90
2019-01-15T20:48:25.755Z,7.90
2019-01-15T20:51:23.181Z,7.90
2019-01-15T20:54:09.976Z,7.90
2019-01-15T20:57:01.192Z,7.90
2019-01-15T20:59:49.400Z,7.90
2019-01-15T21:02:40.723Z,7.90
2019-01-15T21:05:22.179Z,7.90
2019-01-15T21:08:13.423Z,7.90
2019-01-15T21:10:56.374Z,7.90
2019-01-15T21:13:57.160Z,7.90
2019-01-15T21:16:44.582Z,7.90
2019-01-15T21:19:32.863Z,7.90
2019-01-15T21:22:20.041Z,7.90
2019-01-15T21:24:59.212Z,7.90
2019-01-15T21:27:51.588Z,7.90
2019-01-15T21:30:38.521Z,7.90
2019-01-15T21:33:45.048Z,8.00
2019-01-15T21:36:32.213Z,7.90
2019-01-15T21:39:29.688Z,8.00
2019-01-15T21:42:12.905Z,7.90
2019-01-15T21:44:59.829Z,8.00
2019-01-15T21:47:51.108Z,8.00
2019-01-15T21:50:32.785Z,8.00
2019-01-15T21:53:20.026Z,8.00
2019-01-15T21:56:16.054Z,7.90
2019-01-15T21:58:59.093Z,7.90
2019-01-15T22:01:46.816Z,7.90
2019-01-15T22:04:28.312Z,7.90
2019-01-15T22:07:16.521Z,7.90
2019-01-15T22:10:07.855Z,7.90
2019-01-15T22:12:57.706Z,7.90
2019-01-15T22:15:51.758Z,7.90
2019-01-15T22:18:52.364Z,7.90
2019-01-15T22:21:39.248Z,7.90
2019-01-15T22:24:45.727Z,7.90
2019-01-15T22:27:44.733Z,7.90
2019-01-15T22:30:23.060Z,7.90
2019-01-15T22:33:04.244Z,7.90
2019-01-15T22:36:10.812Z,7.90
2019-01-15T22:38:55.914Z,7.90
2019-01-15T22:41:42.673Z,7.90
2019-01-15T22:44:31.383Z,7.90
2019-01-15T22:47:18.273Z,7.90
2019-01-15T22:50:09.545Z,7.80
2019-01-15T22:52:55.111Z,7.80
2019-01-15T22:55:52.986Z,7.80
2019-01-15T22:58:40.187Z,7.80
2019-01-15T23:01:28.867Z,7.80
2019-01-15T23:04:26.804Z,7.80
2019-01-15T23:07:19.711Z,7.80
2019-01-15T23:10:14.413Z,7.80
2019-01-15T23:12:59.873Z,7.80
2019-01-15T23:15:42.116Z,7.80
2019-01-15T23:18:33.360Z,7.80
2019-01-15T23:21:20.492Z,7.80
2019-01-15T23:24:07.626Z,7.80
2019-01-15T23:26:54.877Z,7.80
2019-01-15T23:29:45.465Z,7.80
2019-01-15T23:32:29.349Z,7.80
2019-01-15T23:35:15.976Z,7.90
2019-01-15T23:38:22.801Z,7.80
2019-01-15T23:41:17.069Z,7.90
2019-01-15T23:44:10.920Z,7.90
2019-01-15T23:47:05.130Z,7.80
2019-01-15T23:49:56.652Z,7.80
2019-01-15T23:52:50.390Z,7.90
2019-01-15T23:55:39.286Z,7.90
2019-01-15T23:58:22.985Z,7.90
